Time;durP1;ratioP1;P1;durP2;ratioP2;P2;SDS_P1;SDS_P2;PMS_P1;PMS_P2;Temp;Humidity;BMP_temperature;BMP_pressure;BME280_temperature;BME280_humidity;BME280_pressure;Samples;Min_cycle;Max_cycle;Signal;HPM_P1;HPM_P2
2024/02/09 00:02:22;;;;;;;0.22;0.22;;;15.90;99.90;;;;;;10539384;27;20039;-60
2024/02/09 00:07:25;;;;;;;0.00;0.00;;;15.40;99.90;;;;;;10540030;27;20086;-61
2024/02/09 00:12:27;;;;;;;0.03;0.03;;;15.70;99.90;;;;;;10539953;27;20078;-61
2024/02/09 00:17:32;;;;;;;0.68;0.60;;;15.70;99.90;;;;;;10539824;27;20777;-61
2024/02/09 00:22:36;;;;;;;0.75;0.40;;;15.60;99.90;;;;;;10540433;27;20852;-60
2024/02/09 00:27:39;;;;;;;0.10;0.10;;;15.70;99.90;;;;;;10535591;27;20048;-61
2024/02/09 00:32:41;;;;;;;;;;;15.70;99.90;;;;;;10539866;28;20052;-60
2024/02/09 00:37:45;;;;;;;0.85;0.80;;;15.60;99.90;;;;;;10537166;28;19924;-60
2024/02/09 00:42:48;;;;;;;0.10;0.10;;;15.70;99.90;;;;;;10538570;27;20098;-60
2024/02/09 00:47:52;;;;;;;0.52;0.52;;;15.60;99.90;;;;;;10537850;28;20147;-60
2024/02/09 00:52:55;;;;;;;4.13;0.80;;;15.60;99.90;;;;;;10539622;28;20494;-59
2024/02/09 00:57:58;;;;;;;0.60;0.57;;;15.40;99.90;;;;;;10542198;28;20055;-59
2024/02/09 01:03:02;;;;;;;0.10;0.10;;;15.80;99.90;;;;;;10537318;28;20070;-60
2024/02/09 01:08:08;;;;;;;0.55;0.55;;;15.80;99.90;;;;;;10536830;28;20170;-59
2024/02/09 03:04:57;;;;;;;0.20;0.20;;;15.90;99.90;;;;;;10537573;27;20039;-59
2024/02/09 03:10:01;;;;;;;0.00;0.00;;;15.80;99.90;;;;;;10546201;27;20097;-60
2024/02/09 03:15:06;;;;;;;0.28;0.28;;;15.90;99.90;;;;;;10543391;27;20051;-61
2024/02/09 03:20:10;;;;;;;0.10;0.10;;;15.40;99.90;;;;;;10548147;27;20047;-61
2024/02/09 03:25:12;;;;;;;4.85;1.58;;;15.60;99.90;;;;;;10545535;27;20206;-60
2024/02/09 03:30:17;;;;;;;0.50;0.50;;;15.90;99.90;;;;;;10548290;27;20066;-60
2024/02/09 03:35:24;;;;;;;0.10;0.10;;;15.90;99.90;;;;;;10543418;27;20055;-59
2024/02/09 03:40:27;;;;;;;0.00;0.00;;;15.80;99.90;;;;;;10543660;27;20489;-60
2024/02/09 03:45:30;;;;;;;0.30;0.30;;;15.50;99.90;;;;;;10543176;27;20131;-59
2024/02/09 03:50:34;;;;;;;0.00;0.00;;;15.10;99.90;;;;;;10539077;27;20090;-60
2024/02/09 03:55:36;;;;;;;0.10;0.10;;;15.20;99.90;;;;;;10542860;27;20726;-59
2024/02/09 04:15:33;;;;;;;0.10;0.10;;;15.40;99.90;;;;;;10459223;27;20762;-61
2024/02/09 04:20:35;;;;;;;5.57;1.58;;;15.20;99.90;;;;;;10468577;28;22484;-60
2024/02/09 04:25:38;;;;;;;0.00;0.00;;;14.60;99.90;;;;;;10463411;28;20101;-60
2024/02/09 04:30:42;;;;;;;0.10;0.10;;;15.20;99.90;;;;;;10472667;28;20057;-60
2024/02/09 04:35:44;;;;;;;0.40;0.40;;;15.00;99.90;;;;;;10468226;28;20057;-59
2024/02/09 04:40:46;;;;;;;0.00;0.00;;;15.10;99.90;;;;;;10469002;28;20063;-61
2024/02/09 04:45:51;;;;;;;0.00;0.00;;;15.20;99.90;;;;;;10467828;28;20062;-60
2024/02/09 04:50:55;;;;;;;0.10;0.10;;;15.50;99.90;;;;;;10464179;28;20060;-60
2024/02/09 04:55:57;;;;;;;0.10;0.10;;;15.20;99.90;;;;;;10466707;28;20071;-61
2024/02/09 05:01:00;;;;;;;0.10;0.10;;;15.50;99.90;;;;;;10465773;28;20044;-60
2024/02/09 05:06:03;;;;;;;0.10;0.10;;;15.10;99.90;;;;;;10465162;28;20167;-60
2024/02/09 05:11:05;;;;;;;0.00;0.00;;;15.70;99.90;;;;;;10467684;28;20590;-61
2024/02/09 05:16:09;;;;;;;0.25;0.25;;;16.10;99.90;;;;;;10465899;28;20125;-60
2024/02/09 05:21:14;;;;;;;0.75;0.52;;;16.10;99.90;;;;;;10465932;28;20078;-60
2024/02/09 05:26:18;;;;;;;0.05;0.05;;;16.00;99.90;;;;;;10438807;28;20072;-60
2024/02/09 05:31:23;;;;;;;0.68;0.68;;;15.80;99.90;;;;;;10428560;28;20140;-59
2024/02/09 05:36:26;;;;;;;0.00;0.00;;;16.40;99.90;;;;;;10434248;28;20056;-61
2024/02/09 05:41:28;;;;;;;0.20;0.20;;;16.30;99.90;;;;;;10433576;28;20798;-60
2024/02/09 05:46:31;;;;;;;0.00;0.00;;;16.40;99.90;;;;;;10433724;28;20106;-61
2024/02/09 05:51:34;;;;;;;0.10;0.10;;;16.40;99.90;;;;;;10434157;28;20041;-61
2024/02/09 05:56:36;;;;;;;0.47;0.47;;;16.40;99.90;;;;;;10434354;28;20095;-60
2024/02/09 06:01:40;;;;;;;0.00;0.00;;;15.60;99.90;;;;;;10437286;28;20136;-60
2024/02/09 06:06:45;;;;;;;0.00;0.00;;;16.40;99.90;;;;;;10434577;28;20064;-61
2024/02/09 06:11:48;;;;;;;0.00;0.00;;;16.00;99.90;;;;;;10437399;28;20064;-60
2024/02/09 06:16:51;;;;;;;0.00;0.00;;;16.20;99.90;;;;;;10439309;28;20197;-60
2024/02/09 06:21:55;;;;;;;0.10;0.10;;;16.20;99.90;;;;;;10436714;28;20044;-62
2024/02/09 06:26:57;;;;;;;0.32;0.32;;;16.60;99.90;;;;;;10432726;28;20053;-60
2024/02/09 06:32:03;;;;;;;0.10;0.10;;;15.60;99.90;;;;;;10434107;28;20118;-60
2024/02/09 06:37:05;;;;;;;0.10;0.10;;;16.30;99.90;;;;;;10431695;28;20051;-60
2024/02/09 06:42:07;;;;;;;0.30;0.30;;;16.40;99.90;;;;;;10433113;28;20182;-60
2024/02/09 06:47:11;;;;;;;0.00;0.00;;;16.30;99.90;;;;;;10429836;28;20060;-61
2024/02/09 06:52:13;;;;;;;0.10;0.10;;;16.00;99.90;;;;;;10430162;28;20269;-60
2024/02/09 06:57:15;;;;;;;0.00;0.00;;;16.40;99.90;;;;;;10430134;28;20887;-60
2024/02/09 07:02:19;;;;;;;0.00;0.00;;;16.40;99.90;;;;;;10432423;28;20539;-60
2024/02/09 07:07:22;;;;;;;0.10;0.10;;;16.00;99.90;;;;;;10432972;28;20056;-61
2024/02/09 07:12:26;;;;;;;0.10;0.10;;;15.90;99.90;;;;;;10431023;28;20079;-60
2024/02/09 07:17:29;;;;;;;2.78;1.55;;;16.10;99.90;;;;;;10432601;28;20773;-60
2024/02/09 07:22:31;;;;;;;0.10;0.10;;;15.20;99.90;;;;;;10432337;28;20136;-59
2024/02/09 07:27:33;;;;;;;0.20;0.20;;;15.60;99.90;;;;;;10429574;28;20049;-62
2024/02/09 07:32:37;;;;;;;0.00;0.00;;;16.40;99.90;;;;;;10431990;28;20173;-60
2024/02/09 07:37:39;;;;;;;0.10;0.10;;;16.60;99.90;;;;;;10429131;28;20087;-60
2024/02/09 07:42:41;;;;;;;0.10;0.10;;;16.10;99.90;;;;;;10430767;28;20041;-60
2024/02/09 07:47:45;;;;;;;0.00;0.00;;;16.30;99.90;;;;;;10429923;28;20170;-58
2024/02/09 07:52:47;;;;;;;1.75;0.77;;;15.20;99.90;;;;;;10428102;28;20474;-60
2024/02/09 07:57:49;;;;;;;0.10;0.10;;;14.60;99.90;;;;;;10428031;28;20052;-60
2024/02/09 08:02:53;;;;;;;0.10;0.10;;;14.80;99.90;;;;;;10427421;28;20048;-60
2024/02/09 08:07:55;;;;;;;0.10;0.10;;;14.50;99.90;;;;;;10428071;28;20891;-61
2024/02/09 08:12:57;;;;;;;0.10;0.10;;;15.20;99.90;;;;;;10428883;28;20049;-60
2024/02/09 08:18:00;;;;;;;1.45;1.35;;;15.30;99.90;;;;;;10427761;28;20083;-61
2024/02/09 08:23:02;;;;;;;0.65;0.65;;;14.30;99.90;;;;;;10425512;28;20214;-60
2024/02/09 08:28:05;;;;;;;0.10;0.10;;;14.00;99.90;;;;;;10424769;28;20125;-60
2024/02/09 08:33:11;;;;;;;2.40;0.75;;;14.90;99.90;;;;;;10426251;28;20147;-61
2024/02/09 08:38:13;;;;;;;0.20;0.20;;;13.90;99.90;;;;;;10424880;28;20079;-61
2024/02/09 08:43:15;;;;;;;0.10;0.10;;;14.10;99.90;;;;;;10426240;28;20226;-61
2024/02/09 08:48:18;;;;;;;0.10;0.10;;;13.70;99.90;;;;;;10425639;28;20063;-61
2024/02/09 08:53:20;;;;;;;0.05;0.05;;;13.70;99.90;;;;;;10426971;28;20128;-61
2024/02/09 08:58:22;;;;;;;4.73;1.90;;;12.70;99.90;;;;;;10427558;28;20052;-61
2024/02/09 09:03:27;;;;;;;0.10;0.10;;;12.00;99.90;;;;;;10438015;28;20045;-60
2024/02/09 09:08:29;;;;;;;0.75;0.75;;;12.20;99.90;;;;;;10434360;28;20063;-60
2024/02/09 09:13:31;;;;;;;0.17;0.17;;;11.60;99.90;;;;;;10438980;28;20408;-59
2024/02/09 09:18:34;;;;;;;1.30;1.03;;;11.60;99.90;;;;;;10439433;28;20087;-60
2024/02/09 09:23:37;;;;;;;0.10;0.10;;;12.20;99.90;;;;;;10441459;28;20068;-61
2024/02/09 09:28:39;;;;;;;0.30;0.30;;;11.90;99.90;;;;;;10441621;28;20095;-61
2024/02/09 09:33:42;;;;;;;0.87;0.87;;;12.20;99.90;;;;;;10438920;28;20101;-59
2024/02/09 09:38:45;;;;;;;0.20;0.20;;;12.00;99.90;;;;;;10432971;28;20493;-59
2024/02/09 09:43:49;;;;;;;0.47;0.32;;;11.90;99.90;;;;;;10433370;28;20074;-60
2024/02/09 09:48:55;;;;;;;0.17;0.17;;;11.90;99.90;;;;;;10432263;28;20056;-59
2024/02/09 09:53:58;;;;;;;0.20;0.20;;;11.80;99.90;;;;;;10433077;28;20132;-60
2024/02/09 09:59:00;;;;;;;0.10;0.10;;;11.90;99.90;;;;;;10433303;28;20049;-61
2024/02/09 10:04:04;;;;;;;0.10;0.10;;;12.00;99.90;;;;;;10432668;28;20076;-61
2024/02/09 10:09:09;;;;;;;2.88;2.60;;;11.70;99.90;;;;;;10429730;28;20148;-60
2024/02/09 10:14:12;;;;;;;0.10;0.10;;;11.70;99.90;;;;;;10435087;28;20044;-61
2024/02/09 10:19:16;;;;;;;0.10;0.10;;;11.50;99.90;;;;;;10432127;28;20076;-61
2024/02/09 10:24:18;;;;;;;0.10;0.10;;;11.50;99.90;;;;;;10433007;28;20152;-59
2024/02/09 10:29:21;;;;;;;8.37;3.93;;;11.40;99.90;;;;;;10436133;28;20083;-62
2024/02/09 10:34:24;;;;;;;6.40;2.87;;;11.30;99.90;;;;;;10433665;28;20060;-61
2024/02/09 10:39:26;;;;;;;4.70;2.08;;;11.50;99.90;;;;;;10428427;28;20064;-60
2024/02/09 10:44:32;;;;;;;5.07;2.72;;;11.50;99.90;;;;;;10431669;28;20044;-58
2024/02/09 10:49:41;;;;;;;6.22;2.85;;;11.40;99.90;;;;;;10427943;28;20064;-60
2024/02/09 10:54:49;;;;;;;7.50;2.67;;;11.50;99.90;;;;;;10433277;28;20860;-61
2024/02/09 10:59:51;;;;;;;5.65;2.38;;;11.60;99.90;;;;;;10433843;28;20060;-60
2024/02/09 11:04:55;;;;;;;7.57;2.60;;;11.70;99.90;;;;;;10431929;28;20108;-60
2024/02/09 11:09:58;;;;;;;5.53;2.03;;;11.70;99.90;;;;;;10432050;28;20474;-61
2024/02/09 11:15:12;;;;;;;17.33;3.03;;;12.00;99.90;;;;;;10428475;28;20060;-61
2024/02/09 11:20:16;;;;;;;9.55;2.55;;;12.10;99.90;;;;;;10426406;28;20064;-60
2024/02/09 11:25:19;;;;;;;5.35;2.22;;;12.10;99.90;;;;;;10432846;28;20072;-60
2024/02/09 11:30:22;;;;;;;7.18;1.65;;;12.00;99.90;;;;;;10428855;28;21149;-60
2024/02/09 11:35:28;;;;;;;6.75;1.35;;;12.30;99.90;;;;;;10428495;28;20135;-60
2024/02/09 11:40:30;;;;;;;6.88;1.90;;;12.20;99.90;;;;;;10431879;28;20254;-60
2024/02/09 11:45:33;;;;;;;2.50;0.90;;;12.40;99.90;;;;;;10430878;28;20215;-61
2024/02/09 11:50:37;;;;;;;9.27;1.90;;;12.30;99.90;;;;;;10428682;28;20817;-60
2024/02/09 11:55:40;;;;;;;5.43;1.40;;;12.40;99.90;;;;;;10428853;28;20044;-61
2024/02/09 12:00:43;;;;;;;9.27;1.70;;;12.70;99.90;;;;;;10427859;28;20445;-62
2024/02/09 12:05:50;;;;;;;4.47;1.48;;;13.30;99.90;;;;;;10423645;28;20183;-61
2024/02/09 12:10:52;;;;;;;3.05;1.20;;;13.20;99.90;;;;;;10432854;28;20599;-59
2024/02/09 12:15:56;;;;;;;8.55;1.30;;;13.40;99.90;;;;;;10435343;28;20083;-61
2024/02/09 12:21:00;;;;;;;8.00;0.95;;;13.40;99.90;;;;;;10434649;28;20067;-60
2024/02/09 12:26:05;;;;;;;3.78;1.33;;;14.30;99.90;;;;;;10429058;28;20049;-61
2024/02/09 12:31:08;;;;;;;7.88;1.65;;;13.60;99.90;;;;;;10431239;28;20068;-60
2024/02/09 12:36:11;;;;;;;7.93;1.77;;;13.70;99.90;;;;;;10436946;28;20139;-60
2024/02/09 12:41:16;;;;;;;10.85;2.38;;;13.30;99.90;;;;;;10442408;28;20779;-58
2024/02/09 12:46:19;;;;;;;11.35;1.80;;;13.60;99.90;;;;;;10438810;28;20051;-60
2024/02/09 12:51:24;;;;;;;8.50;1.52;;;13.90;99.90;;;;;;10435553;28;20133;-60
2024/02/09 12:56:26;;;;;;;6.90;2.25;;;14.80;99.90;;;;;;10436300;28;20664;-61
2024/02/09 13:01:29;;;;;;;2.73;1.10;;;14.00;99.90;;;;;;10439251;28;20147;-62
2024/02/09 13:06:32;;;;;;;7.43;1.55;;;13.80;99.90;;;;;;10434679;28;20484;-59
2024/02/09 13:11:36;;;;;;;9.80;1.52;;;14.00;99.90;;;;;;10436230;28;20091;-59
2024/02/09 13:16:38;;;;;;;5.53;1.05;;;13.80;99.90;;;;;;10440070;28;20063;-60
2024/02/09 13:21:41;;;;;;;10.30;1.60;;;13.70;99.90;;;;;;10433638;28;20087;-62
2024/02/09 13:26:45;;;;;;;7.05;1.08;;;13.40;99.90;;;;;;10433540;28;20057;-59
2024/02/09 13:31:47;;;;;;;4.93;1.38;;;13.70;99.90;;;;;;10434882;28;20057;-59
2024/02/09 13:36:51;;;;;;;7.23;1.70;;;13.80;99.90;;;;;;10435420;28;20044;-60
2024/02/09 13:41:53;;;;;;;8.57;1.15;;;14.20;99.90;;;;;;10441037;28;20828;-59
2024/02/09 13:46:55;;;;;;;7.88;1.58;;;14.20;99.90;;;;;;10430430;28;20373;-59
2024/02/09 13:52:01;;;;;;;7.30;1.83;;;14.10;99.90;;;;;;10436563;28;20076;-60
2024/02/09 13:57:05;;;;;;;7.93;1.88;;;13.80;99.90;;;;;;10443343;28;20196;-60
2024/02/09 14:02:08;;;;;;;9.75;1.95;;;14.30;99.90;;;;;;10436435;28;20938;-59
2024/02/09 14:07:11;;;;;;;;;;;14.30;99.90;;;;;;10439576;28;20048;-60
2024/02/09 14:12:15;;;;;;;6.88;1.35;;;14.90;99.90;;;;;;10430613;28;19971;-60
2024/02/09 14:17:17;;;;;;;11.40;1.70;;;14.90;99.90;;;;;;10432136;28;20142;-60
2024/02/09 14:22:20;;;;;;;12.27;3.80;;;14.60;99.90;;;;;;10436373;28;20083;-60
2024/02/09 14:27:23;;;;;;;5.22;1.60;;;14.40;99.90;;;;;;10434413;28;20041;-57
2024/02/09 14:32:26;;;;;;;10.27;1.65;;;14.50;99.90;;;;;;10437884;28;20057;-61
2024/02/09 14:37:29;;;;;;;7.10;1.40;;;14.60;99.90;;;;;;10430122;28;20068;-58
2024/02/09 14:42:31;;;;;;;9.70;1.40;;;14.30;99.90;;;;;;10429934;28;20080;-59
2024/02/09 14:47:33;;;;;;;3.33;0.80;;;13.90;99.90;;;;;;10436152;28;20519;-60
2024/02/09 14:52:38;;;;;;;8.00;1.33;;;14.50;99.90;;;;;;10431985;28;20800;-61
2024/02/09 14:57:40;;;;;;;5.28;1.23;;;14.40;99.90;;;;;;10443188;28;20693;-61
2024/02/09 15:02:42;;;;;;;6.95;1.45;;;14.60;99.90;;;;;;10437514;28;20060;-61
2024/02/09 15:07:46;;;;;;;7.03;1.13;;;14.60;99.90;;;;;;10436385;28;20056;-60
2024/02/09 15:12:48;;;;;;;6.07;1.10;;;13.80;99.90;;;;;;10439834;28;21443;-60
2024/02/09 15:17:52;;;;;;;8.00;0.90;;;13.90;99.90;;;;;;10433733;28;20052;-61
2024/02/09 15:22:56;;;;;;;5.45;1.02;;;13.80;99.90;;;;;;10435828;28;20053;-61
2024/02/09 15:28:00;;;;;;;5.15;1.42;;;14.00;99.90;;;;;;10436024;28;20045;-61
2024/02/09 15:33:02;;;;;;;10.38;2.40;;;13.90;99.90;;;;;;10433146;28;20067;-60
2024/02/09 15:38:05;;;;;;;4.80;1.43;;;14.60;99.90;;;;;;10430553;28;20052;-60
2024/02/09 15:43:07;;;;;;;7.60;1.50;;;14.50;99.90;;;;;;10436542;28;20060;-60
2024/02/09 15:48:09;;;;;;;6.43;1.73;;;14.30;99.90;;;;;;10429477;28;20524;-61
2024/02/09 15:53:13;;;;;;;10.18;2.15;;;14.30;99.90;;;;;;10433944;28;20199;-61
2024/02/09 15:58:19;;;;;;;3.95;1.55;;;14.70;99.90;;;;;;10435789;28;20059;-60
2024/02/09 16:03:21;;;;;;;9.88;2.25;;;15.70;99.90;;;;;;10434189;28;20048;-60
2024/02/09 16:08:24;;;;;;;7.70;1.10;;;14.80;99.90;;;;;;10426608;28;20121;-61
2024/02/09 16:13:27;;;;;;;4.63;1.45;;;14.50;99.90;;;;;;10423250;28;20556;-60
2024/02/09 16:18:32;;;;;;;9.50;1.55;;;14.40;99.90;;;;;;10429886;28;20044;-61
2024/02/09 16:23:36;;;;;;;5.85;1.23;;;15.00;99.90;;;;;;10429038;28;20049;-61
2024/02/09 16:28:38;;;;;;;5.35;1.33;;;15.40;99.90;;;;;;10434404;28;20663;-60
2024/02/09 16:33:42;;;;;;;6.85;1.58;;;16.30;99.90;;;;;;10419920;28;20917;-61
2024/02/09 16:38:45;;;;;;;4.15;1.27;;;15.50;99.90;;;;;;10430187;28;20878;-60
2024/02/09 16:43:47;;;;;;;11.98;1.50;;;15.90;99.90;;;;;;10421250;28;20156;-60
2024/02/09 16:48:49;;;;;;;8.60;1.33;;;16.10;99.90;;;;;;10427826;28;20090;-60
2024/02/09 16:53:53;;;;;;;9.50;1.50;;;16.50;99.90;;;;;;10426647;28;21379;-60
2024/02/09 16:58:55;;;;;;;3.90;1.15;;;16.40;99.90;;;;;;10425914;28;20196;-60
2024/02/09 17:03:57;;;;;;;6.15;1.60;;;16.60;99.90;;;;;;10425871;28;20060;-61
2024/02/09 17:09:01;;;;;;;8.27;1.98;;;16.60;99.90;;;;;;10423664;28;20060;-60
2024/02/09 17:14:03;;;;;;;6.07;1.48;;;16.40;99.90;;;;;;10422192;28;20184;-60
2024/02/09 17:19:05;;;;;;;5.25;1.45;;;16.40;99.90;;;;;;10423349;28;20052;-60
2024/02/09 17:24:09;;;;;;;5.70;1.37;;;16.50;99.90;;;;;;10431498;28;20055;-61
2024/02/09 17:29:11;;;;;;;5.68;1.63;;;16.30;99.90;;;;;;10433021;28;20130;-60
2024/02/09 17:34:13;;;;;;;11.13;1.90;;;16.90;99.90;;;;;;10433764;28;20096;-61
2024/02/09 17:39:17;;;;;;;3.60;1.27;;;16.30;99.90;;;;;;10437745;28;20134;-62
2024/02/09 17:44:19;;;;;;;7.20;1.80;;;16.60;99.90;;;;;;10443186;28;20056;-60
2024/02/09 17:49:22;;;;;;;8.40;1.58;;;16.60;99.90;;;;;;10435362;28;20049;-60
2024/02/09 17:54:26;;;;;;;6.30;1.38;;;16.50;99.90;;;;;;10438466;28;20412;-61
2024/02/09 17:59:29;;;;;;;7.15;1.52;;;16.50;99.90;;;;;;10436953;28;20061;-62
2024/02/09 18:04:32;;;;;;;4.97;1.40;;;16.30;99.90;;;;;;10438314;28;20060;-62
2024/02/09 18:09:37;;;;;;;7.32;2.70;;;16.40;99.90;;;;;;10435777;28;20056;-62
2024/02/09 18:14:39;;;;;;;13.88;1.85;;;16.10;99.90;;;;;;10438861;28;20060;-61
2024/02/09 18:19:41;;;;;;;4.57;1.02;;;16.20;99.90;;;;;;10435710;28;20052;-61
2024/02/09 18:24:46;;;;;;;6.27;1.80;;;16.70;99.90;;;;;;10434707;28;20516;-61
2024/02/09 18:29:48;;;;;;;5.40;1.30;;;16.60;99.90;;;;;;10437402;28;20051;-59
2024/02/09 18:34:52;;;;;;;4.97;1.58;;;16.50;99.90;;;;;;10431984;28;20053;-63
2024/02/09 18:39:56;;;;;;;2.70;0.95;;;16.60;99.90;;;;;;10440294;28;20056;-61
2024/02/09 18:45:00;;;;;;;10.63;2.63;;;16.90;99.90;;;;;;10429391;28;20075;-61
2024/02/09 18:50:02;;;;;;;9.25;1.77;;;16.50;99.90;;;;;;10428031;28;20154;-63
2024/02/09 18:55:07;;;;;;;5.90;1.70;;;16.10;99.90;;;;;;10437213;28;20597;-57
2024/02/09 19:00:10;;;;;;;7.35;1.90;;;15.90;99.90;;;;;;10435637;28;20593;-58
2024/02/09 19:05:13;;;;;;;;;;;16.20;99.90;;;;;;10433536;28;20522;-59
2024/02/09 19:10:17;;;;;;;10.10;1.63;;;16.50;99.90;;;;;;10430676;28;19924;-61
2024/02/09 19:15:19;;;;;;;4.90;1.55;;;15.70;99.90;;;;;;10430963;28;20068;-61
2024/02/09 19:20:22;;;;;;;10.37;1.80;;;15.60;99.90;;;;;;10431951;28;20677;-59
2024/02/09 19:25:26;;;;;;;9.50;1.92;;;16.20;99.90;;;;;;10434420;28;20044;-60
2024/02/09 19:30:30;;;;;;;6.75;1.60;;;16.70;99.90;;;;;;10432749;28;20709;-63
2024/02/09 19:35:32;;;;;;;12.32;2.55;;;16.70;99.90;;;;;;10434474;28;20117;-60
2024/02/09 19:40:35;;;;;;;12.43;1.80;;;16.20;99.90;;;;;;10428880;28;20048;-61
2024/02/09 19:45:37;;;;;;;5.97;1.40;;;16.80;99.90;;;;;;10430915;28;20052;-59
2024/02/09 19:50:41;;;;;;;10.87;1.90;;;16.40;99.90;;;;;;10430111;28;20067;-61
2024/02/09 19:55:47;;;;;;;7.65;1.67;;;16.40;99.90;;;;;;10433993;28;20067;-61
2024/02/09 20:00:49;;;;;;;11.57;2.10;;;16.30;99.90;;;;;;10425026;28;20056;-60
2024/02/09 20:05:52;;;;;;;7.13;1.98;;;16.40;99.90;;;;;;10431616;28;20121;-61
2024/02/09 20:10:55;;;;;;;5.40;2.13;;;16.40;99.90;;;;;;10429374;28;20071;-59
2024/02/09 20:16:02;;;;;;;7.18;1.80;;;16.40;99.90;;;;;;10423720;28;20040;-61
2024/02/09 20:21:04;;;;;;;9.85;2.00;;;16.60;99.90;;;;;;10430190;28;20098;-60
2024/02/09 20:26:08;;;;;;;12.02;2.28;;;16.40;99.90;;;;;;10425247;28;20436;-61
2024/02/09 20:31:12;;;;;;;8.68;2.35;;;16.30;99.90;;;;;;10426915;28;20053;-60
2024/02/09 20:36:16;;;;;;;15.23;2.15;;;16.10;99.90;;;;;;10429150;28;20514;-62
2024/02/09 20:41:20;;;;;;;9.93;2.42;;;15.90;99.90;;;;;;10438672;28;20075;-61
2024/02/09 20:46:24;;;;;;;7.60;2.55;;;17.00;99.90;;;;;;10428714;28;20091;-61
2024/02/09 20:51:26;;;;;;;9.07;2.70;;;17.30;99.90;;;;;;10431201;28;20503;-61
2024/02/09 20:56:30;;;;;;;9.07;2.30;;;17.40;99.90;;;;;;10440316;28;20769;-61
2024/02/09 21:01:34;;;;;;;9.13;1.88;;;17.40;99.90;;;;;;10438158;28;20515;-61
2024/02/09 21:06:37;;;;;;;11.10;2.05;;;17.40;99.90;;;;;;10431983;28;20356;-62
2024/02/09 21:11:41;;;;;;;7.70;2.17;;;17.40;99.90;;;;;;10435844;28;20915;-62
2024/02/09 21:16:44;;;;;;;11.00;2.35;;;17.40;99.90;;;;;;10438573;28;20523;-62
2024/02/09 21:21:46;;;;;;;11.55;2.78;;;17.50;99.90;;;;;;10437888;28;20778;-62
2024/02/09 21:26:52;;;;;;;10.43;2.37;;;17.50;99.90;;;;;;10432301;28;20159;-61
2024/02/09 21:31:54;;;;;;;9.20;2.38;;;17.50;99.90;;;;;;10428020;28;20048;-61
2024/02/09 21:36:57;;;;;;;16.95;2.90;;;17.50;99.90;;;;;;10430122;28;20178;-60
2024/02/09 21:42:01;;;;;;;12.20;2.30;;;17.50;99.90;;;;;;10432573;28;20171;-61
2024/02/09 21:47:03;;;;;;;17.23;2.92;;;17.80;99.90;;;;;;10435811;28;20059;-58
2024/02/09 21:52:06;;;;;;;9.65;2.22;;;17.70;99.90;;;;;;10434739;28;20076;-60
2024/02/09 21:57:09;;;;;;;10.98;2.63;;;17.80;99.90;;;;;;10432269;28;20207;-61
2024/02/09 22:02:17;;;;;;;10.73;2.15;;;17.80;99.90;;;;;;10429739;28;22491;-61
2024/02/09 22:07:20;;;;;;;9.07;2.60;;;17.60;99.90;;;;;;10433065;28;20044;-61
2024/02/09 22:12:26;;;;;;;9.68;2.60;;;17.80;99.90;;;;;;10437264;28;20121;-60
2024/02/09 22:17:30;;;;;;;11.30;2.30;;;17.50;99.90;;;;;;10430201;28;20059;-61
2024/02/09 22:22:32;;;;;;;7.78;3.00;;;17.60;99.90;;;;;;10434416;28;20801;-61
2024/02/09 22:27:36;;;;;;;12.95;2.65;;;17.60;99.90;;;;;;10434202;28;20168;-62
2024/02/09 22:32:38;;;;;;;21.13;3.25;;;17.50;99.90;;;;;;10436986;28;20127;-60
2024/02/09 22:37:41;;;;;;;6.78;2.22;;;17.70;99.90;;;;;;10435617;28;20053;-62
2024/02/09 22:42:50;;;;;;;9.05;2.30;;;17.50;99.90;;;;;;10432140;28;20171;-61
2024/02/09 22:47:54;;;;;;;8.98;2.25;;;17.60;99.90;;;;;;10435361;28;20407;-63
2024/02/09 22:52:58;;;;;;;9.50;3.00;;;17.50;99.90;;;;;;10438995;28;20048;-61
2024/02/09 22:58:02;;;;;;;6.63;2.03;;;17.40;99.90;;;;;;10439067;28;20053;-62
2024/02/09 23:03:06;;;;;;;18.13;4.05;;;17.40;99.90;;;;;;10439720;28;20143;-61
2024/02/09 23:08:10;;;;;;;9.07;2.13;;;17.30;99.90;;;;;;10434741;28;20146;-61
2024/02/09 23:13:13;;;;;;;6.30;2.95;;;17.50;99.90;;;;;;10439694;28;20060;-61
2024/02/09 23:18:15;;;;;;;6.82;2.80;;;17.40;99.90;;;;;;10436457;28;20091;-62
2024/02/09 23:23:18;;;;;;;8.05;2.60;;;17.50;99.90;;;;;;10437553;28;20064;-61
2024/02/09 23:28:28;;;;;;;9.90;2.63;;;17.50;99.90;;;;;;10431912;28;20064;-62
2024/02/09 23:33:30;;;;;;;7.63;2.92;;;17.30;99.90;;;;;;10432959;28;20186;-60
2024/02/09 23:38:32;;;;;;;7.85;2.38;;;17.50;99.90;;;;;;10436765;28;20544;-61
2024/02/09 23:43:36;;;;;;;10.00;2.90;;;17.40;99.90;;;;;;10441164;28;20427;-62
2024/02/09 23:48:40;;;;;;;9.10;2.78;;;17.30;99.90;;;;;;10439033;28;20475;-61
2024/02/09 23:53:43;;;;;;;9.77;2.67;;;17.20;99.90;;;;;;10435193;28;20575;-60
2024/02/09 23:58:48;;;;;;;9.57;2.90;;;17.00;99.90;;;;;;10439084;28;20049;-61
